Map

Track Data

SID SEASON NUMBER BASIN SUBBASIN NAME ISO_TIME NATURE LAT LON WMO_WIND WMO_PRES WMO_AGENCY TRACK_TYPE DIST2LAND LANDFALL IFLAG USA_AGENCY USA_ATCF_ID USA_LAT USA_LON USA_RECORD USA_STATUS USA_WIND USA_PRES USA_SSHS USA_R34_NE USA_R34_SE USA_R34_SW USA_R34_NW USA_R50_NE USA_R50_SE USA_R50_SW USA_R50_NW USA_R64_NE USA_R64_SE USA_R64_SW USA_R64_NW USA_POCI USA_ROCI USA_RMW USA_EYE TOKYO_LAT TOKYO_LON TOKYO_GRADE TOKYO_WIND TOKYO_PRES TOKYO_R50_DIR TOKYO_R50_LONG TOKYO_R50_SHORT TOKYO_R30_DIR TOKYO_R30_LONG TOKYO_R30_SHORT TOKYO_LAND CMA_LAT CMA_LON CMA_CAT CMA_WIND CMA_PRES HKO_LAT HKO_LON HKO_CAT HKO_WIND HKO_PRES NEWDELHI_LAT NEWDELHI_LON NEWDELHI_GRADE NEWDELHI_WIND NEWDELHI_PRES NEWDELHI_CI NEWDELHI_DP NEWDELHI_POCI REUNION_LAT REUNION_LON REUNION_TYPE REUNION_WIND REUNION_PRES REUNION_TNUM REUNION_CI REUNION_RMW REUNION_R34_NE REUNION_R34_SE REUNION_R34_SW REUNION_R34_NW REUNION_R50_NE REUNION_R50_SE REUNION_R50_SW REUNION_R50_NW REUNION_R64_NE REUNION_R64_SE REUNION_R64_SW REUNION_R64_NW BOM_LAT BOM_LON BOM_TYPE BOM_WIND BOM_PRES BOM_TNUM BOM_CI BOM_RMW BOM_R34_NE BOM_R34_SE BOM_R34_SW BOM_R34_NW BOM_R50_NE BOM_R50_SE BOM_R50_SW BOM_R50_NW BOM_R64_NE BOM_R64_SE BOM_R64_SW BOM_R64_NW BOM_ROCI BOM_POCI BOM_EYE BOM_POS_METHOD BOM_PRES_METHOD NADI_LAT NADI_LON NADI_CAT NADI_WIND NADI_PRES WELLINGTON_LAT WELLINGTON_LON WELLINGTON_WIND WELLINGTON_PRES DS824_LAT DS824_LON DS824_STAGE DS824_WIND DS824_PRES TD9636_LAT TD9636_LON TD9636_STAGE TD9636_WIND TD9636_PRES TD9635_LAT TD9635_LON TD9635_WIND TD9635_PRES TD9635_ROCI NEUMANN_LAT NEUMANN_LON NEUMANN_CLASS NEUMANN_WIND NEUMANN_PRES MLC_LAT MLC_LON MLC_CLASS MLC_WIND MLC_PRES USA_GUST BOM_GUST BOM_GUST_PER REUNION_GUST REUNION_GUST_PER USA_SEAHGT USA_SEARAD_NE USA_SEARAD_SE USA_SEARAD_SW USA_SEARAD_NW STORM_SPEED STORM_DIR
2020046S16075 2020 7 SI MM GABEKILE 2020-02-15 06:00:00 NR -16.4000 74.5000 PROVISIONAL 1814 1782 O_____________ tcvitals SI162020 -16.4000 74.5000 35 1000 0 45 40 1004 130 30 9 212
2020046S16075 2020 7 SI MM GABEKILE 2020-02-15 09:00:00 NR -16.7926 74.2428 PROVISIONAL 1771 1752 P_____________ SI162020 -16.7926 74.2428 40 997 0 47 47 1004 150 30 8 209
2020046S16075 2020 7 SI MM GABEKILE 2020-02-15 12:00:00 NR -17.1000 74.1000 PROVISIONAL 1752 1747 O_____________ tcvitals SI162020 -17.1000 74.1000 45 995 0 50 55 1004 170 30 5 190
2020046S16075 2020 7 SI MM GABEKILE 2020-02-15 15:00:00 NR -17.2850 74.1475 PROVISIONAL 1747 1747 P_____________ SI162020 -17.2850 74.1475 49 990 0 47 52 1006 195 25 4 155
2020046S16075 2020 7 SI MM GABEKILE 2020-02-15 18:00:00 NR -17.5000 74.3000 PROVISIONAL 1763 1760 O_____________ tcvitals SI162020 -17.5000 74.3000 54 985 0 45 50 35 30 1009 220 20 7 155
2020046S16075 2020 7 SI MM GABEKILE 2020-02-15 21:00:00 NR -17.9200 74.4573 PROVISIONAL 1774 1768 P_____________ SI162020 -17.9200 74.4573 64 983 1 50 60 42 40 1009 220 22 10 162
2020046S16075 2020 7 SI MM GABEKILE 2020-02-16 00:00:00 NR -18.4000 74.6000 PROVISIONAL 1774 1767 O_____________ tcvitals SI162020 -18.4000 74.6000 74 981 1 55 70 50 50 1009 220 25 9 168
2020046S16075 2020 7 SI MM GABEKILE 2020-02-16 03:00:00 NR -18.7925 74.6503 PROVISIONAL 1777 1772 P_____________ SI162020 -18.7925 74.6503 74 980 1 57 70 52 52 1008 195 25 8 173
2020046S16075 2020 7 SI MM GABEKILE 2020-02-16 06:00:00 NR -19.2000 74.7000 PROVISIONAL 1772 1769 O_____________ tcvitals SI162020 -19.2000 74.7000 74 980 1 60 70 55 55 1007 170 25 9 169
2020046S16075 2020 7 SI MM GABEKILE 2020-02-16 09:00:00 NR -19.7000 74.8349 PROVISIONAL 1776 1776 P_____________ SI162020 -19.7000 74.8349 74 979 1 72 75 57 57 1006 167 22 10 164
2020046S16075 2020 7 SI MM GABEKILE 2020-02-16 12:00:00 NR -20.2000 75.0000 PROVISIONAL 1793 1792 O_____________ tcvitals SI162020 -20.2000 75.0000 74 978 1 85 80 60 60 1005 165 20 11 163
2020046S16075 2020 7 SI MM GABEKILE 2020-02-16 15:00:00 NR -20.7275 75.1723 PROVISIONAL 1811 1811 P_____________ SI162020 -20.7275 75.1723 74 978 1 75 77 60 55 1005 165 20 9 161
2020046S16075 2020 7 SI MM GABEKILE 2020-02-16 18:00:00 NR -21.0000 75.3000 PROVISIONAL 1821 1821 O_____________ tcvitals SI162020 -21.0000 75.3000 74 978 1 65 75 60 50 1005 165 20 1 86
2020046S16075 2020 7 SI MM GABEKILE 2020-02-16 21:00:00 NR -20.7175 75.3226 PROVISIONAL 1822 1822 P_____________ SI162020 -20.7175 75.3226 72 979 1 62 72 60 52 1004 152 17 7 0
2020046S16075 2020 7 SI MM GABEKILE 2020-02-17 00:00:00 NR -20.3000 75.3000 PROVISIONAL 1823 1823 O_____________ tcvitals SI162020 -20.3000 75.3000 70 980 1 60 70 60 55 1004 140 14 5 355
2020046S16075 2020 7 SI MM GABEKILE 2020-02-17 03:00:00 NR -20.1900 75.2925 PROVISIONAL 1824 1824 P_____________ SI162020 -20.1900 75.2925 65 983 1 65 105 95 45 1005 152 19 1 0
2020046S16075 2020 7 SI MM GABEKILE 2020-02-17 06:00:00 NR -20.2000 75.3000 PROVISIONAL 1824 1824 O_____________ tcvitals SI162020 -20.2000 75.3000 60 986 0 70 140 130 35 1007 165 25 1 144
2020046S16075 2020 7 SI MM GABEKILE 2020-02-17 09:00:00 NR -20.2350 75.3350 PROVISIONAL 1824 1823 P_____________ SI162020 -20.2350 75.3350 52 989 0 72 125 117 35 1006 165 27 1 137
2020046S16075 2020 7 SI MM GABEKILE 2020-02-17 12:00:00 NR -20.3000 75.4000 PROVISIONAL 1834 1834 O_____________ tcvitals SI162020 -20.3000 75.4000 45 993 0 75 110 105 35 1005 165 30 2 128
2020046S16075 2020 7 SI MM GABEKILE 2020-02-17 15:00:00 NR -20.3500 75.4925 PROVISIONAL 1844 1844 P_____________ SI162020 -20.3500 75.4925 40 996 0 62 110 100 40 1006 167 30 2 119
2020046S16075 2020 7 SI MM GABEKILE 2020-02-17 18:00:00 NR -20.4000 75.6000 PROVISIONAL 1854 1854 O_____________ tcvitals SI162020 -20.4000 75.6000 35 1000 0 50 110 95 45 1007 170 30 2 116
2020046S16075 2020 7 SI MM GABEKILE 2020-02-17 21:00:00 NR -20.4500 75.7150 PROVISIONAL 1864 1864 P_____________ SI162020 -20.4500 75.7150 35 1000 0 45 105 87 42 1007 170 30 2 119
2020046S16075 2020 7 SI MM GABEKILE 2020-02-18 00:00:00 NR -20.5000 75.8000 PROVISIONAL 1874 1874 O_____________ tcvitals SI162020 -20.5000 75.8000 35 1001 0 40 100 80 40 1007 170 30 1 124
2020046S16075 2020 7 SI MM GABEKILE 2020-02-18 03:00:00 NR -20.5275 75.8374 PROVISIONAL 1874 1874 P_____________ SI162020 -20.5275 75.8374 35 1001 0 45 75 65 1007 170 30 1 0
2020046S16075 2020 7 SI MM GABEKILE 2020-02-18 06:00:00 NR -20.6000 75.8000 PROVISIONAL 1874 1863 O_____________ tcvitals SI162020 -20.6000 75.8000 35 1002 0 50 50 50 1007 170 30 3 210
2020046S16075 2020 7 SI MM GABEKILE 2020-02-18 09:00:00 NR -20.7775 75.6875 PROVISIONAL 1863 1842 P_____________ SI162020 -20.7775 75.6875 32 1000 -1 1005 160 32 5 215
2020046S16075 2020 7 SI MM GABEKILE 2020-02-18 12:00:00 NR -21.0000 75.5000 PROVISIONAL 1842 1810 O_____________ tcvitals SI162020 -21.0000 75.5000 29 998 -1 1004 150 35 6 225
2020046S16075 2020 7 SI MM GABEKILE 2020-02-18 15:00:00 NR -21.1926 75.2351 PROVISIONAL 1810 1790 P_____________ SI162020 -21.1926 75.2351 29 1000 -1 1005 157 35 6 229
2020046S16075 2020 7 SI MM GABEKILE 2020-02-18 18:00:00 NR -21.4000 75.0000 PROVISIONAL 1790 1780 O_____________ tcvitals SI162020 -21.4000 75.0000 29 1002 -1 1007 165 35 5 214
2020046S16075 2020 7 SI MM GABEKILE 2020-02-18 21:00:00 NR -21.6049 74.9421 PROVISIONAL 1780 1780 P_____________ SI162020 -21.6049 74.9421 29 1001 -1 1006 170 35 5 191
2020046S16075 2020 7 SI MM GABEKILE 2020-02-19 00:00:00 NR -21.9000 74.9000 PROVISIONAL 1781 1772 O_____________ tcvitals SI162020 -21.9000 74.9000 29 1001 -1 1006 175 35 8 194
2020046S16075 2020 7 SI MM GABEKILE 2020-02-19 03:00:00 NR -22.3526 74.7407 PROVISIONAL 1764 1748 P_____________ SI162020 -22.3526 74.7407 29 1001 -1 1006 175 35 11 200
2020046S16075 2020 7 SI MM GABEKILE 2020-02-19 06:00:00 NR -22.9000 74.5000 PROVISIONAL 1749 O_____________ tcvitals SI162020 -22.9000 74.5000 29 1001 -1 1006 175 35 12 202

About IBTrACS Database

This database is a web-friendly format of International Best Track Archive for Climate Stewardship (IBTrACS), a global best track data archive curated by NOAA dating back to 1842.

Updated: 2021-12-03